sensor_id;sensor_type;location;lat;lon;timestamp;P1;durP1;ratioP1;P2;durP2;ratioP2
12970;SDS011;6550;48.650;8.774;2022-12-10T00:01:30;19.10;;;13.70;;
12970;SDS011;6550;48.650;8.774;2022-12-10T00:03:58;17.20;;;13.00;;
12970;SDS011;6550;48.650;8.774;2022-12-10T00:06:27;18.47;;;13.63;;
12970;SDS011;6550;48.650;8.774;2022-12-10T00:08:58;18.47;;;12.80;;
12970;SDS011;6550;48.650;8.774;2022-12-10T00:11:26;18.90;;;13.97;;
12970;SDS011;6550;48.650;8.774;2022-12-10T00:13:55;18.85;;;15.75;;
12970;SDS011;6550;48.650;8.774;2022-12-10T00:16:23;19.50;;;14.23;;
12970;SDS011;6550;48.650;8.774;2022-12-10T00:18:51;18.50;;;13.73;;
12970;SDS011;6550;48.650;8.774;2022-12-10T00:21:19;19.57;;;13.97;;
12970;SDS011;6550;48.650;8.774;2022-12-10T00:23:48;16.57;;;12.13;;
12970;SDS011;6550;48.650;8.774;2022-12-10T00:26:19;17.87;;;12.70;;
12970;SDS011;6550;48.650;8.774;2022-12-10T00:28:53;20.73;;;14.57;;
12970;SDS011;6550;48.650;8.774;2022-12-10T00:31:23;17.77;;;13.70;;
12970;SDS011;6550;48.650;8.774;2022-12-10T00:33:54;15.53;;;12.50;;
12970;SDS011;6550;48.650;8.774;2022-12-10T00:36:30;17.50;;;13.43;;
12970;SDS011;6550;48.650;8.774;2022-12-10T00:39:04;18.27;;;12.83;;
12970;SDS011;6550;48.650;8.774;2022-12-10T00:41:36;20.13;;;13.37;;
12970;SDS011;6550;48.650;8.774;2022-12-10T00:44:03;17.67;;;12.73;;
12970;SDS011;6550;48.650;8.774;2022-12-10T00:46:31;17.97;;;13.07;;
12970;SDS011;6550;48.650;8.774;2022-12-10T00:48:58;20.10;;;13.63;;
12970;SDS011;6550;48.650;8.774;2022-12-10T00:51:26;19.00;;;13.37;;
12970;SDS011;6550;48.650;8.774;2022-12-10T00:53:54;19.97;;;13.27;;
12970;SDS011;6550;48.650;8.774;2022-12-10T00:56:29;16.63;;;13.40;;
12970;SDS011;6550;48.650;8.774;2022-12-10T00:58:59;17.53;;;13.63;;
12970;SDS011;6550;48.650;8.774;2022-12-10T01:01:33;20.13;;;13.50;;
12970;SDS011;6550;48.650;8.774;2022-12-10T01:04:09;17.63;;;13.27;;
12970;SDS011;6550;48.650;8.774;2022-12-10T01:06:45;17.07;;;12.93;;
12970;SDS011;6550;48.650;8.774;2022-12-10T01:09:14;19.17;;;13.77;;
12970;SDS011;6550;48.650;8.774;2022-12-10T01:11:44;17.87;;;13.33;;
12970;SDS011;6550;48.650;8.774;2022-12-10T01:14:13;17.70;;;13.10;;
12970;SDS011;6550;48.650;8.774;2022-12-10T01:16:45;18.07;;;13.80;;
12970;SDS011;6550;48.650;8.774;2022-12-10T01:19:12;19.67;;;13.97;;
12970;SDS011;6550;48.650;8.774;2022-12-10T01:21:39;17.93;;;13.50;;
12970;SDS011;6550;48.650;8.774;2022-12-10T01:24:06;17.87;;;13.80;;
12970;SDS011;6550;48.650;8.774;2022-12-10T01:26:36;18.17;;;14.13;;
12970;SDS011;6550;48.650;8.774;2022-12-10T01:29:03;18.83;;;13.77;;
12970;SDS011;6550;48.650;8.774;2022-12-10T01:31:34;19.60;;;14.63;;
12970;SDS011;6550;48.650;8.774;2022-12-10T01:34:02;17.80;;;13.07;;
12970;SDS011;6550;48.650;8.774;2022-12-10T01:36:31;17.67;;;13.03;;
12970;SDS011;6550;48.650;8.774;2022-12-10T01:38:59;19.13;;;14.03;;
12970;SDS011;6550;48.650;8.774;2022-12-10T01:41:34;17.93;;;12.90;;
12970;SDS011;6550;48.650;8.774;2022-12-10T01:46:50;18.80;;;13.93;;
12970;SDS011;6550;48.650;8.774;2022-12-10T01:49:20;18.77;;;13.70;;
12970;SDS011;6550;48.650;8.774;2022-12-10T01:51:52;17.70;;;13.03;;
12970;SDS011;6550;48.650;8.774;2022-12-10T01:54:25;19.17;;;13.57;;
12970;SDS011;6550;48.650;8.774;2022-12-10T01:57:07;17.67;;;13.63;;
12970;SDS011;6550;48.650;8.774;2022-12-10T01:59:42;19.80;;;13.90;;
12970;SDS011;6550;48.650;8.774;2022-12-10T02:18:32;19.07;;;14.17;;
12970;SDS011;6550;48.650;8.774;2022-12-10T02:21:10;18.13;;;14.00;;
12970;SDS011;6550;48.650;8.774;2022-12-10T02:23:43;19.15;;;15.98;;
12970;SDS011;6550;48.650;8.774;2022-12-10T02:26:23;19.63;;;13.93;;
12970;SDS011;6550;48.650;8.774;2022-12-10T02:29:26;16.10;;;14.10;;
12970;SDS011;6550;48.650;8.774;2022-12-10T02:34:37;18.20;;;13.80;;
12970;SDS011;6550;48.650;8.774;2022-12-10T02:37:09;18.53;;;14.90;;
12970;SDS011;6550;48.650;8.774;2022-12-10T02:39:45;17.13;;;13.27;;
12970;SDS011;6550;48.650;8.774;2022-12-10T02:42:16;17.40;;;13.47;;
12970;SDS011;6550;48.650;8.774;2022-12-10T02:44:48;18.27;;;13.73;;
12970;SDS011;6550;48.650;8.774;2022-12-10T02:47:18;18.02;;;14.45;;
12970;SDS011;6550;48.650;8.774;2022-12-10T02:49:50;16.87;;;12.97;;
12970;SDS011;6550;48.650;8.774;2022-12-10T02:52:22;16.93;;;13.00;;
12970;SDS011;6550;48.650;8.774;2022-12-10T02:54:51;16.80;;;13.57;;
12970;SDS011;6550;48.650;8.774;2022-12-10T02:57:21;17.57;;;13.10;;
12970;SDS011;6550;48.650;8.774;2022-12-10T03:10:34;17.30;;;13.47;;
12970;SDS011;6550;48.650;8.774;2022-12-10T03:13:11;19.93;;;13.33;;
12970;SDS011;6550;48.650;8.774;2022-12-10T03:15:44;16.73;;;13.63;;
12970;SDS011;6550;48.650;8.774;2022-12-10T03:18:14;18.70;;;13.37;;
12970;SDS011;6550;48.650;8.774;2022-12-10T03:20:51;17.80;;;13.13;;
12970;SDS011;6550;48.650;8.774;2022-12-10T03:23:20;17.93;;;13.33;;
12970;SDS011;6550;48.650;8.774;2022-12-10T03:25:47;14.60;;;12.17;;
12970;SDS011;6550;48.650;8.774;2022-12-10T03:28:16;16.17;;;13.00;;
12970;SDS011;6550;48.650;8.774;2022-12-10T03:30:46;18.83;;;14.03;;
12970;SDS011;6550;48.650;8.774;2022-12-10T03:33:14;16.67;;;13.07;;
12970;SDS011;6550;48.650;8.774;2022-12-10T03:35:41;18.13;;;13.83;;
12970;SDS011;6550;48.650;8.774;2022-12-10T03:38:08;17.03;;;13.07;;
12970;SDS011;6550;48.650;8.774;2022-12-10T03:40:40;16.70;;;14.90;;
12970;SDS011;6550;48.650;8.774;2022-12-10T03:43:07;15.97;;;13.93;;
12970;SDS011;6550;48.650;8.774;2022-12-10T03:45:36;18.10;;;13.67;;
12970;SDS011;6550;48.650;8.774;2022-12-10T03:48:05;17.60;;;13.60;;
12970;SDS011;6550;48.650;8.774;2022-12-10T03:50:32;17.53;;;13.40;;
12970;SDS011;6550;48.650;8.774;2022-12-10T03:52:59;16.60;;;12.87;;
12970;SDS011;6550;48.650;8.774;2022-12-10T03:55:25;17.17;;;13.33;;
12970;SDS011;6550;48.650;8.774;2022-12-10T03:57:54;17.43;;;13.37;;
12970;SDS011;6550;48.650;8.774;2022-12-10T04:00:21;16.57;;;13.77;;
12970;SDS011;6550;48.650;8.774;2022-12-10T04:02:50;18.13;;;14.30;;
12970;SDS011;6550;48.650;8.774;2022-12-10T04:05:17;17.10;;;14.82;;
12970;SDS011;6550;48.650;8.774;2022-12-10T04:07:48;16.33;;;12.87;;
12970;SDS011;6550;48.650;8.774;2022-12-10T04:10:18;14.10;;;12.07;;
12970;SDS011;6550;48.650;8.774;2022-12-10T04:12:44;15.17;;;12.33;;
12970;SDS011;6550;48.650;8.774;2022-12-10T04:15:31;16.80;;;13.30;;
12970;SDS011;6550;48.650;8.774;2022-12-10T04:18:16;15.37;;;12.27;;
12970;SDS011;6550;48.650;8.774;2022-12-10T04:20:48;14.27;;;12.33;;
12970;SDS011;6550;48.650;8.774;2022-12-10T04:23:35;17.60;;;13.73;;
12970;SDS011;6550;48.650;8.774;2022-12-10T04:26:21;16.63;;;12.67;;
12970;SDS011;6550;48.650;8.774;2022-12-10T04:29:08;16.47;;;12.13;;
12970;SDS011;6550;48.650;8.774;2022-12-10T04:31:35;15.83;;;13.30;;
12970;SDS011;6550;48.650;8.774;2022-12-10T04:34:02;16.50;;;12.97;;
12970;SDS011;6550;48.650;8.774;2022-12-10T04:36:29;15.80;;;12.73;;
12970;SDS011;6550;48.650;8.774;2022-12-10T04:38:57;15.27;;;11.83;;
12970;SDS011;6550;48.650;8.774;2022-12-10T04:41:24;16.33;;;12.40;;
12970;SDS011;6550;48.650;8.774;2022-12-10T04:43:53;17.60;;;14.13;;
12970;SDS011;6550;48.650;8.774;2022-12-10T04:46:20;16.73;;;13.67;;
12970;SDS011;6550;48.650;8.774;2022-12-10T04:48:47;15.13;;;12.60;;
12970;SDS011;6550;48.650;8.774;2022-12-10T04:51:14;16.07;;;12.80;;
12970;SDS011;6550;48.650;8.774;2022-12-10T04:53:40;15.73;;;12.70;;
12970;SDS011;6550;48.650;8.774;2022-12-10T04:56:07;17.40;;;12.97;;
12970;SDS011;6550;48.650;8.774;2022-12-10T04:58:34;16.70;;;14.90;;
12970;SDS011;6550;48.650;8.774;2022-12-10T05:01:04;15.67;;;13.43;;
12970;SDS011;6550;48.650;8.774;2022-12-10T05:03:32;15.80;;;12.67;;
12970;SDS011;6550;48.650;8.774;2022-12-10T05:06:03;15.57;;;12.23;;
12970;SDS011;6550;48.650;8.774;2022-12-10T05:08:34;13.77;;;11.63;;
12970;SDS011;6550;48.650;8.774;2022-12-10T05:11:02;14.03;;;11.70;;
12970;SDS011;6550;48.650;8.774;2022-12-10T05:13:33;16.43;;;12.93;;
12970;SDS011;6550;48.650;8.774;2022-12-10T05:16:03;16.23;;;13.17;;
12970;SDS011;6550;48.650;8.774;2022-12-10T05:18:32;14.77;;;12.30;;
12970;SDS011;6550;48.650;8.774;2022-12-10T05:21:02;19.23;;;13.90;;
12970;SDS011;6550;48.650;8.774;2022-12-10T05:23:36;15.90;;;14.02;;
12970;SDS011;6550;48.650;8.774;2022-12-10T05:26:10;16.13;;;13.50;;
12970;SDS011;6550;48.650;8.774;2022-12-10T05:28:40;16.07;;;13.13;;
12970;SDS011;6550;48.650;8.774;2022-12-10T05:33:40;15.80;;;12.90;;
12970;SDS011;6550;48.650;8.774;2022-12-10T05:36:08;15.83;;;13.00;;
12970;SDS011;6550;48.650;8.774;2022-12-10T05:38:37;16.13;;;12.80;;
12970;SDS011;6550;48.650;8.774;2022-12-10T05:41:08;14.67;;;12.60;;
12970;SDS011;6550;48.650;8.774;2022-12-10T05:43:42;19.03;;;14.63;;
12970;SDS011;6550;48.650;8.774;2022-12-10T05:46:11;15.13;;;12.53;;
12970;SDS011;6550;48.650;8.774;2022-12-10T05:48:42;17.93;;;13.83;;
12970;SDS011;6550;48.650;8.774;2022-12-10T05:51:10;15.40;;;12.37;;
12970;SDS011;6550;48.650;8.774;2022-12-10T05:53:41;18.13;;;13.57;;
12970;SDS011;6550;48.650;8.774;2022-12-10T05:56:14;16.50;;;13.00;;
12970;SDS011;6550;48.650;8.774;2022-12-10T05:58:44;15.93;;;13.13;;
12970;SDS011;6550;48.650;8.774;2022-12-10T06:01:16;15.90;;;12.85;;
12970;SDS011;6550;48.650;8.774;2022-12-10T06:03:48;16.43;;;13.13;;
12970;SDS011;6550;48.650;8.774;2022-12-10T06:06:26;15.17;;;12.37;;
12970;SDS011;6550;48.650;8.774;2022-12-10T06:08:55;17.97;;;12.83;;
12970;SDS011;6550;48.650;8.774;2022-12-10T06:11:22;17.43;;;13.23;;
12970;SDS011;6550;48.650;8.774;2022-12-10T06:13:52;16.27;;;13.10;;
12970;SDS011;6550;48.650;8.774;2022-12-10T06:16:22;16.52;;;14.75;;
12970;SDS011;6550;48.650;8.774;2022-12-10T06:18:55;14.30;;;12.17;;
12970;SDS011;6550;48.650;8.774;2022-12-10T06:21:22;17.10;;;12.53;;
12970;SDS011;6550;48.650;8.774;2022-12-10T06:23:50;17.33;;;13.83;;
12970;SDS011;6550;48.650;8.774;2022-12-10T06:26:20;16.27;;;13.30;;
12970;SDS011;6550;48.650;8.774;2022-12-10T06:28:49;17.07;;;12.47;;
12970;SDS011;6550;48.650;8.774;2022-12-10T06:31:16;16.07;;;12.23;;
12970;SDS011;6550;48.650;8.774;2022-12-10T06:33:45;16.90;;;12.70;;
12970;SDS011;6550;48.650;8.774;2022-12-10T06:36:15;15.80;;;12.83;;
12970;SDS011;6550;48.650;8.774;2022-12-10T06:38:45;16.53;;;12.83;;
12970;SDS011;6550;48.650;8.774;2022-12-10T06:41:16;18.00;;;15.27;;
12970;SDS011;6550;48.650;8.774;2022-12-10T06:43:47;16.17;;;13.47;;
12970;SDS011;6550;48.650;8.774;2022-12-10T06:46:16;16.93;;;13.13;;
12970;SDS011;6550;48.650;8.774;2022-12-10T06:48:44;15.33;;;12.20;;
12970;SDS011;6550;48.650;8.774;2022-12-10T06:51:12;13.73;;;11.50;;
12970;SDS011;6550;48.650;8.774;2022-12-10T06:53:42;14.90;;;11.80;;
12970;SDS011;6550;48.650;8.774;2022-12-10T06:56:14;16.43;;;12.97;;
12970;SDS011;6550;48.650;8.774;2022-12-10T06:58:44;16.73;;;12.67;;
12970;SDS011;6550;48.650;8.774;2022-12-10T07:01:15;15.90;;;12.50;;
12970;SDS011;6550;48.650;8.774;2022-12-10T07:03:49;15.03;;;12.67;;
12970;SDS011;6550;48.650;8.774;2022-12-10T07:06:21;15.23;;;12.20;;
12970;SDS011;6550;48.650;8.774;2022-12-10T07:08:51;16.00;;;12.83;;
12970;SDS011;6550;48.650;8.774;2022-12-10T07:11:21;15.43;;;12.20;;
12970;SDS011;6550;48.650;8.774;2022-12-10T07:13:51;14.20;;;12.07;;
12970;SDS011;6550;48.650;8.774;2022-12-10T07:16:19;13.87;;;11.87;;
12970;SDS011;6550;48.650;8.774;2022-12-10T07:18:50;14.83;;;12.33;;
12970;SDS011;6550;48.650;8.774;2022-12-10T07:23:44;14.77;;;12.47;;
12970;SDS011;6550;48.650;8.774;2022-12-10T07:26:11;15.37;;;12.07;;
12970;SDS011;6550;48.650;8.774;2022-12-10T07:28:38;17.13;;;12.30;;
12970;SDS011;6550;48.650;8.774;2022-12-10T07:31:18;16.30;;;12.57;;
12970;SDS011;6550;48.650;8.774;2022-12-10T07:33:48;15.97;;;14.13;;
12970;SDS011;6550;48.650;8.774;2022-12-10T07:36:15;15.53;;;13.27;;
12970;SDS011;6550;48.650;8.774;2022-12-10T07:38:45;16.50;;;12.60;;
12970;SDS011;6550;48.650;8.774;2022-12-10T07:41:14;16.07;;;13.23;;
12970;SDS011;6550;48.650;8.774;2022-12-10T07:43:42;14.83;;;12.80;;
12970;SDS011;6550;48.650;8.774;2022-12-10T07:48:44;16.27;;;12.60;;
12970;SDS011;6550;48.650;8.774;2022-12-10T07:51:12;15.63;;;12.93;;
12970;SDS011;6550;48.650;8.774;2022-12-10T07:53:42;15.97;;;12.83;;
12970;SDS011;6550;48.650;8.774;2022-12-10T07:56:11;20.40;;;13.97;;
12970;SDS011;6550;48.650;8.774;2022-12-10T07:58:42;16.55;;;14.13;;
12970;SDS011;6550;48.650;8.774;2022-12-10T08:01:11;16.97;;;14.33;;
12970;SDS011;6550;48.650;8.774;2022-12-10T08:03:40;16.43;;;13.03;;
12970;SDS011;6550;48.650;8.774;2022-12-10T08:06:08;17.27;;;14.10;;
12970;SDS011;6550;48.650;8.774;2022-12-10T08:08:37;16.90;;;13.60;;
12970;SDS011;6550;48.650;8.774;2022-12-10T08:11:04;17.33;;;13.90;;
12970;SDS011;6550;48.650;8.774;2022-12-10T08:13:34;17.07;;;13.97;;
12970;SDS011;6550;48.650;8.774;2022-12-10T08:16:02;17.07;;;13.57;;
12970;SDS011;6550;48.650;8.774;2022-12-10T08:18:31;17.70;;;14.20;;
12970;SDS011;6550;48.650;8.774;2022-12-10T08:21:07;17.43;;;14.47;;
12970;SDS011;6550;48.650;8.774;2022-12-10T08:23:38;16.37;;;13.57;;
12970;SDS011;6550;48.650;8.774;2022-12-10T08:26:08;16.57;;;13.03;;
12970;SDS011;6550;48.650;8.774;2022-12-10T08:28:36;17.37;;;13.50;;
12970;SDS011;6550;48.650;8.774;2022-12-10T08:31:06;17.93;;;13.80;;
12970;SDS011;6550;48.650;8.774;2022-12-10T08:33:38;18.23;;;14.13;;
12970;SDS011;6550;48.650;8.774;2022-12-10T08:36:06;17.60;;;13.50;;
12970;SDS011;6550;48.650;8.774;2022-12-10T08:38:38;18.20;;;16.30;;
12970;SDS011;6550;48.650;8.774;2022-12-10T08:41:09;17.23;;;14.03;;
12970;SDS011;6550;48.650;8.774;2022-12-10T08:43:40;16.43;;;13.37;;
12970;SDS011;6550;48.650;8.774;2022-12-10T08:46:08;18.03;;;12.93;;
12970;SDS011;6550;48.650;8.774;2022-12-10T08:48:40;15.03;;;12.47;;
12970;SDS011;6550;48.650;8.774;2022-12-10T08:51:07;16.45;;;14.65;;
12970;SDS011;6550;48.650;8.774;2022-12-10T08:53:38;17.50;;;14.13;;
12970;SDS011;6550;48.650;8.774;2022-12-10T08:56:05;16.17;;;13.57;;
12970;SDS011;6550;48.650;8.774;2022-12-10T08:58:32;16.60;;;13.63;;
12970;SDS011;6550;48.650;8.774;2022-12-10T09:00:59;15.10;;;13.20;;
12970;SDS011;6550;48.650;8.774;2022-12-10T09:03:27;17.63;;;14.43;;
12970;SDS011;6550;48.650;8.774;2022-12-10T09:05:54;17.23;;;13.47;;
12970;SDS011;6550;48.650;8.774;2022-12-10T09:08:27;16.13;;;13.27;;
12970;SDS011;6550;48.650;8.774;2022-12-10T09:10:53;19.33;;;14.23;;
12970;SDS011;6550;48.650;8.774;2022-12-10T09:13:25;15.93;;;13.60;;
12970;SDS011;6550;48.650;8.774;2022-12-10T09:15:52;17.83;;;15.40;;
12970;SDS011;6550;48.650;8.774;2022-12-10T09:18:19;16.53;;;13.33;;
12970;SDS011;6550;48.650;8.774;2022-12-10T09:20:50;15.83;;;13.87;;
12970;SDS011;6550;48.650;8.774;2022-12-10T09:23:17;18.10;;;14.13;;
12970;SDS011;6550;48.650;8.774;2022-12-10T09:25:44;16.17;;;14.37;;
12970;SDS011;6550;48.650;8.774;2022-12-10T09:28:10;16.17;;;13.27;;
12970;SDS011;6550;48.650;8.774;2022-12-10T09:30:37;13.93;;;12.03;;
12970;SDS011;6550;48.650;8.774;2022-12-10T09:33:04;13.07;;;11.60;;
12970;SDS011;6550;48.650;8.774;2022-12-10T09:35:31;13.53;;;12.03;;
12970;SDS011;6550;48.650;8.774;2022-12-10T09:38:00;15.13;;;12.70;;
12970;SDS011;6550;48.650;8.774;2022-12-10T09:43:47;17.50;;;12.63;;
12970;SDS011;6550;48.650;8.774;2022-12-10T09:51:31;13.83;;;12.13;;
12970;SDS011;6550;48.650;8.774;2022-12-10T09:54:18;15.60;;;14.00;;
12970;SDS011;6550;48.650;8.774;2022-12-10T09:56:58;14.30;;;12.50;;
12970;SDS011;6550;48.650;8.774;2022-12-10T10:02:42;15.97;;;13.60;;
12970;SDS011;6550;48.650;8.774;2022-12-10T10:04:51;14.90;;;11.90;;
12970;SDS011;6550;48.650;8.774;2022-12-10T10:07:23;16.10;;;13.33;;
12970;SDS011;6550;48.650;8.774;2022-12-10T10:10:02;16.03;;;12.80;;
12970;SDS011;6550;48.650;8.774;2022-12-10T10:12:33;14.80;;;12.70;;
12970;SDS011;6550;48.650;8.774;2022-12-10T10:15:12;16.57;;;12.73;;
12970;SDS011;6550;48.650;8.774;2022-12-10T10:17:41;14.93;;;12.60;;
12970;SDS011;6550;48.650;8.774;2022-12-10T10:20:12;14.93;;;12.77;;
12970;SDS011;6550;48.650;8.774;2022-12-10T10:22:42;13.07;;;11.13;;
12970;SDS011;6550;48.650;8.774;2022-12-10T10:25:15;15.47;;;12.83;;
12970;SDS011;6550;48.650;8.774;2022-12-10T10:27:44;14.27;;;12.63;;
12970;SDS011;6550;48.650;8.774;2022-12-10T10:30:16;15.43;;;11.80;;
12970;SDS011;6550;48.650;8.774;2022-12-10T10:35:33;15.37;;;12.70;;
12970;SDS011;6550;48.650;8.774;2022-12-10T10:38:12;16.03;;;12.93;;
12970;SDS011;6550;48.650;8.774;2022-12-10T10:40:59;15.90;;;13.23;;
12970;SDS011;6550;48.650;8.774;2022-12-10T10:43:48;14.70;;;12.47;;
12970;SDS011;6550;48.650;8.774;2022-12-10T10:46:22;15.88;;;14.30;;
12970;SDS011;6550;48.650;8.774;2022-12-10T10:48:50;13.57;;;11.73;;
12970;SDS011;6550;48.650;8.774;2022-12-10T10:51:37;14.30;;;12.43;;
12970;SDS011;6550;48.650;8.774;2022-12-10T10:54:08;14.47;;;12.00;;
12970;SDS011;6550;48.650;8.774;2022-12-10T10:56:39;12.63;;;11.07;;
12970;SDS011;6550;48.650;8.774;2022-12-10T11:01:46;13.70;;;12.23;;
12970;SDS011;6550;48.650;8.774;2022-12-10T11:04:18;12.67;;;11.30;;
12970;SDS011;6550;48.650;8.774;2022-12-10T11:06:54;13.90;;;12.03;;
12970;SDS011;6550;48.650;8.774;2022-12-10T11:09:28;14.00;;;11.03;;
12970;SDS011;6550;48.650;8.774;2022-12-10T11:12:06;13.30;;;11.07;;
12970;SDS011;6550;48.650;8.774;2022-12-10T11:14:57;15.10;;;12.03;;
12970;SDS011;6550;48.650;8.774;2022-12-10T11:17:24;14.33;;;12.03;;
12970;SDS011;6550;48.650;8.774;2022-12-10T11:22:31;15.67;;;11.77;;
12970;SDS011;6550;48.650;8.774;2022-12-10T11:25:01;13.33;;;10.90;;
12970;SDS011;6550;48.650;8.774;2022-12-10T11:35:54;15.70;;;11.10;;
12970;SDS011;6550;48.650;8.774;2022-12-10T11:38:36;13.93;;;11.00;;
12970;SDS011;6550;48.650;8.774;2022-12-10T11:51:36;13.57;;;11.50;;
12970;SDS011;6550;48.650;8.774;2022-12-10T11:59:47;10.73;;;9.57;;
12970;SDS011;6550;48.650;8.774;2022-12-10T12:07:51;12.57;;;10.27;;
12970;SDS011;6550;48.650;8.774;2022-12-10T12:13:22;13.33;;;11.07;;
12970;SDS011;6550;48.650;8.774;2022-12-10T12:16:07;13.17;;;10.90;;
12970;SDS011;6550;48.650;8.774;2022-12-10T12:19:00;12.83;;;10.60;;
12970;SDS011;6550;48.650;8.774;2022-12-10T12:21:30;11.73;;;10.47;;
12970;SDS011;6550;48.650;8.774;2022-12-10T12:26:57;12.10;;;10.80;;
12970;SDS011;6550;48.650;8.774;2022-12-10T12:29:36;12.77;;;11.07;;
12970;SDS011;6550;48.650;8.774;2022-12-10T12:32:11;11.47;;;10.30;;
12970;SDS011;6550;48.650;8.774;2022-12-10T12:34:59;11.30;;;9.97;;
12970;SDS011;6550;48.650;8.774;2022-12-10T12:37:42;12.30;;;10.17;;
12970;SDS011;6550;48.650;8.774;2022-12-10T12:40:25;12.63;;;9.90;;
12970;SDS011;6550;48.650;8.774;2022-12-10T12:43:04;11.80;;;10.17;;
12970;SDS011;6550;48.650;8.774;2022-12-10T12:45:39;12.10;;;10.10;;
12970;SDS011;6550;48.650;8.774;2022-12-10T12:51:16;13.03;;;10.20;;
12970;SDS011;6550;48.650;8.774;2022-12-10T12:53:48;10.53;;;9.43;;
12970;SDS011;6550;48.650;8.774;2022-12-10T12:59:11;10.90;;;9.03;;
12970;SDS011;6550;48.650;8.774;2022-12-10T13:02:01;12.18;;;10.88;;
12970;SDS011;6550;48.650;8.774;2022-12-10T13:05:04;9.73;;;8.73;;
12970;SDS011;6550;48.650;8.774;2022-12-10T13:07:40;11.73;;;9.23;;
12970;SDS011;6550;48.650;8.774;2022-12-10T13:10:17;11.60;;;9.70;;
12970;SDS011;6550;48.650;8.774;2022-12-10T13:12:52;9.73;;;8.73;;
12970;SDS011;6550;48.650;8.774;2022-12-10T13:15:34;10.43;;;8.67;;
12970;SDS011;6550;48.650;8.774;2022-12-10T13:20:46;12.43;;;9.80;;
12970;SDS011;6550;48.650;8.774;2022-12-10T13:25:55;10.83;;;9.57;;
12970;SDS011;6550;48.650;8.774;2022-12-10T13:33:45;10.53;;;8.77;;
12970;SDS011;6550;48.650;8.774;2022-12-10T13:41:34;10.83;;;8.83;;
12970;SDS011;6550;48.650;8.774;2022-12-10T13:44:36;10.90;;;8.97;;
12970;SDS011;6550;48.650;8.774;2022-12-10T13:49:48;10.00;;;8.53;;
12970;SDS011;6550;48.650;8.774;2022-12-10T13:52:17;10.55;;;9.45;;
12970;SDS011;6550;48.650;8.774;2022-12-10T14:01:00;9.90;;;8.60;;
12970;SDS011;6550;48.650;8.774;2022-12-10T14:06:42;11.40;;;9.00;;
12970;SDS011;6550;48.650;8.774;2022-12-10T14:09:19;11.20;;;9.10;;
12970;SDS011;6550;48.650;8.774;2022-12-10T14:14:26;10.93;;;9.30;;
12970;SDS011;6550;48.650;8.774;2022-12-10T14:17:38;11.38;;;10.27;;
12970;SDS011;6550;48.650;8.774;2022-12-10T14:20:17;10.30;;;9.20;;
12970;SDS011;6550;48.650;8.774;2022-12-10T14:22:46;11.00;;;9.30;;
12970;SDS011;6550;48.650;8.774;2022-12-10T14:25:16;10.57;;;9.10;;
12970;SDS011;6550;48.650;8.774;2022-12-10T14:27:51;9.67;;;8.63;;
12970;SDS011;6550;48.650;8.774;2022-12-10T14:30:21;11.43;;;9.33;;
12970;SDS011;6550;48.650;8.774;2022-12-10T14:32:53;10.70;;;9.40;;
12970;SDS011;6550;48.650;8.774;2022-12-10T14:35:25;9.90;;;8.83;;
12970;SDS011;6550;48.650;8.774;2022-12-10T14:37:54;11.47;;;9.20;;
12970;SDS011;6550;48.650;8.774;2022-12-10T14:40:25;9.93;;;8.83;;
12970;SDS011;6550;48.650;8.774;2022-12-10T14:43:02;10.57;;;8.77;;
12970;SDS011;6550;48.650;8.774;2022-12-10T14:45:44;9.20;;;8.20;;
12970;SDS011;6550;48.650;8.774;2022-12-10T14:48:14;8.83;;;7.93;;
12970;SDS011;6550;48.650;8.774;2022-12-10T14:50:43;9.93;;;8.33;;
12970;SDS011;6550;48.650;8.774;2022-12-10T14:53:13;10.10;;;8.20;;
12970;SDS011;6550;48.650;8.774;2022-12-10T14:55:56;9.20;;;7.93;;
12970;SDS011;6550;48.650;8.774;2022-12-10T14:58:29;9.83;;;8.27;;
12970;SDS011;6550;48.650;8.774;2022-12-10T15:01:26;10.70;;;8.83;;
12970;SDS011;6550;48.650;8.774;2022-12-10T15:03:58;9.07;;;8.17;;
12970;SDS011;6550;48.650;8.774;2022-12-10T15:06:27;10.30;;;8.30;;
12970;SDS011;6550;48.650;8.774;2022-12-10T15:09:00;9.53;;;8.00;;
12970;SDS011;6550;48.650;8.774;2022-12-10T15:11:28;9.37;;;8.30;;
12970;SDS011;6550;48.650;8.774;2022-12-10T15:13:59;9.53;;;8.47;;
12970;SDS011;6550;48.650;8.774;2022-12-10T15:16:39;10.70;;;9.10;;
12970;SDS011;6550;48.650;8.774;2022-12-10T15:19:18;10.40;;;8.63;;
12970;SDS011;6550;48.650;8.774;2022-12-10T15:22:11;9.30;;;8.30;;
12970;SDS011;6550;48.650;8.774;2022-12-10T15:24:42;10.83;;;9.00;;
12970;SDS011;6550;48.650;8.774;2022-12-10T15:29:49;10.90;;;9.50;;
12970;SDS011;6550;48.650;8.774;2022-12-10T15:32:23;10.55;;;9.55;;
12970;SDS011;6550;48.650;8.774;2022-12-10T15:34:57;9.33;;;8.23;;
12970;SDS011;6550;48.650;8.774;2022-12-10T15:37:37;9.93;;;8.47;;
12970;SDS011;6550;48.650;8.774;2022-12-10T15:40:06;9.27;;;8.10;;
12970;SDS011;6550;48.650;8.774;2022-12-10T15:42:48;9.67;;;8.30;;
12970;SDS011;6550;48.650;8.774;2022-12-10T15:45:21;10.48;;;9.48;;
12970;SDS011;6550;48.650;8.774;2022-12-10T15:47:54;9.93;;;8.90;;
12970;SDS011;6550;48.650;8.774;2022-12-10T15:50:25;9.50;;;8.43;;
12970;SDS011;6550;48.650;8.774;2022-12-10T15:52:54;10.00;;;8.47;;
12970;SDS011;6550;48.650;8.774;2022-12-10T15:55:21;8.73;;;7.83;;
12970;SDS011;6550;48.650;8.774;2022-12-10T15:57:50;10.97;;;9.10;;
12970;SDS011;6550;48.650;8.774;2022-12-10T16:00:20;10.73;;;8.67;;
12970;SDS011;6550;48.650;8.774;2022-12-10T16:02:58;9.97;;;8.80;;
12970;SDS011;6550;48.650;8.774;2022-12-10T16:05:30;9.03;;;8.13;;
12970;SDS011;6550;48.650;8.774;2022-12-10T16:08:00;9.47;;;8.47;;
12970;SDS011;6550;48.650;8.774;2022-12-10T16:10:48;10.43;;;9.38;;
12970;SDS011;6550;48.650;8.774;2022-12-10T16:13:23;9.27;;;7.87;;
12970;SDS011;6550;48.650;8.774;2022-12-10T16:16:00;9.10;;;8.13;;
12970;SDS011;6550;48.650;8.774;2022-12-10T16:18:30;9.97;;;8.40;;
12970;SDS011;6550;48.650;8.774;2022-12-10T16:20:59;8.67;;;7.77;;
12970;SDS011;6550;48.650;8.774;2022-12-10T16:23:29;9.57;;;7.97;;
12970;SDS011;6550;48.650;8.774;2022-12-10T16:25:57;8.93;;;7.80;;
12970;SDS011;6550;48.650;8.774;2022-12-10T16:28:24;9.20;;;7.63;;
12970;SDS011;6550;48.650;8.774;2022-12-10T16:30:57;8.63;;;7.70;;
12970;SDS011;6550;48.650;8.774;2022-12-10T16:33:25;9.93;;;7.80;;
12970;SDS011;6550;48.650;8.774;2022-12-10T16:35:56;8.60;;;7.70;;
12970;SDS011;6550;48.650;8.774;2022-12-10T16:38:23;8.37;;;7.27;;
12970;SDS011;6550;48.650;8.774;2022-12-10T16:40:53;7.97;;;7.17;;
12970;SDS011;6550;48.650;8.774;2022-12-10T16:43:23;9.47;;;7.50;;
12970;SDS011;6550;48.650;8.774;2022-12-10T16:45:54;7.97;;;7.17;;
12970;SDS011;6550;48.650;8.774;2022-12-10T16:48:21;9.52;;;8.52;;
12970;SDS011;6550;48.650;8.774;2022-12-10T16:50:49;8.97;;;8.07;;
12970;SDS011;6550;48.650;8.774;2022-12-10T16:53:18;8.37;;;7.53;;
12970;SDS011;6550;48.650;8.774;2022-12-10T16:55:49;8.03;;;7.23;;
12970;SDS011;6550;48.650;8.774;2022-12-10T16:58:17;9.40;;;7.50;;
12970;SDS011;6550;48.650;8.774;2022-12-10T17:00:45;9.13;;;8.23;;
12970;SDS011;6550;48.650;8.774;2022-12-10T17:03:19;8.00;;;7.17;;
12970;SDS011;6550;48.650;8.774;2022-12-10T17:05:55;8.37;;;7.43;;
12970;SDS011;6550;48.650;8.774;2022-12-10T17:08:23;8.10;;;7.20;;
12970;SDS011;6550;48.650;8.774;2022-12-10T17:10:52;8.30;;;7.27;;
12970;SDS011;6550;48.650;8.774;2022-12-10T17:13:38;8.70;;;7.50;;
12970;SDS011;6550;48.650;8.774;2022-12-10T17:16:06;8.00;;;7.20;;
12970;SDS011;6550;48.650;8.774;2022-12-10T17:18:43;8.13;;;7.03;;
12970;SDS011;6550;48.650;8.774;2022-12-10T17:21:09;8.70;;;7.13;;
12970;SDS011;6550;48.650;8.774;2022-12-10T17:23:36;8.87;;;7.97;;